sensor_id;sensor_type;location;lat;lon;timestamp;temperature;humidity
67379;DHT22;54262;44.642;-0.974;2024-02-14T00:00:38;10.50;99.90
67379;DHT22;54262;44.642;-0.974;2024-02-14T00:03:06;10.50;99.90
67379;DHT22;54262;44.642;-0.974;2024-02-14T00:05:32;10.50;99.90
67379;DHT22;54262;44.642;-0.974;2024-02-14T00:07:58;10.50;99.90
67379;DHT22;54262;44.642;-0.974;2024-02-14T00:10:23;10.50;99.90
67379;DHT22;54262;44.642;-0.974;2024-02-14T00:12:49;10.50;99.90
67379;DHT22;54262;44.642;-0.974;2024-02-14T00:15:19;10.50;99.90
67379;DHT22;54262;44.642;-0.974;2024-02-14T00:17:44;10.50;99.90
67379;DHT22;54262;44.642;-0.974;2024-02-14T00:20:10;10.40;99.90
67379;DHT22;54262;44.642;-0.974;2024-02-14T00:22:40;10.40;99.90
67379;DHT22;54262;44.642;-0.974;2024-02-14T00:25:10;10.40;99.90
67379;DHT22;54262;44.642;-0.974;2024-02-14T00:27:36;10.40;99.90
67379;DHT22;54262;44.642;-0.974;2024-02-14T00:30:02;10.30;99.90
67379;DHT22;54262;44.642;-0.974;2024-02-14T00:32:28;10.30;99.90
67379;DHT22;54262;44.642;-0.974;2024-02-14T00:34:54;10.30;99.90
67379;DHT22;54262;44.642;-0.974;2024-02-14T00:37:20;10.40;99.90
67379;DHT22;54262;44.642;-0.974;2024-02-14T00:39:45;10.30;99.90
67379;DHT22;54262;44.642;-0.974;2024-02-14T00:42:14;10.30;99.90
67379;DHT22;54262;44.642;-0.974;2024-02-14T00:44:42;10.30;99.90
67379;DHT22;54262;44.642;-0.974;2024-02-14T00:47:08;10.30;99.90
67379;DHT22;54262;44.642;-0.974;2024-02-14T00:49:36;10.30;99.90
67379;DHT22;54262;44.642;-0.974;2024-02-14T00:52:04;10.30;99.90
67379;DHT22;54262;44.642;-0.974;2024-02-14T00:54:30;10.40;99.90
67379;DHT22;54262;44.642;-0.974;2024-02-14T00:56:55;10.40;99.90
67379;DHT22;54262;44.642;-0.974;2024-02-14T00:59:21;10.40;99.90
67379;DHT22;54262;44.642;-0.974;2024-02-14T01:01:47;10.30;99.90
67379;DHT22;54262;44.642;-0.974;2024-02-14T01:04:12;10.30;99.90
67379;DHT22;54262;44.642;-0.974;2024-02-14T01:06:38;10.30;99.90
67379;DHT22;54262;44.642;-0.974;2024-02-14T01:09:04;10.30;99.90
67379;DHT22;54262;44.642;-0.974;2024-02-14T01:11:29;10.30;99.90
67379;DHT22;54262;44.642;-0.974;2024-02-14T01:13:55;10.40;99.90
67379;DHT22;54262;44.642;-0.974;2024-02-14T01:16:21;10.30;99.90
67379;DHT22;54262;44.642;-0.974;2024-02-14T01:18:47;10.30;99.90
67379;DHT22;54262;44.642;-0.974;2024-02-14T01:21:15;10.20;99.90
67379;DHT22;54262;44.642;-0.974;2024-02-14T01:23:43;10.20;99.90
67379;DHT22;54262;44.642;-0.974;2024-02-14T01:26:11;10.10;99.90
67379;DHT22;54262;44.642;-0.974;2024-02-14T01:28:37;10.30;99.90
67379;DHT22;54262;44.642;-0.974;2024-02-14T01:31:03;10.30;99.90
67379;DHT22;54262;44.642;-0.974;2024-02-14T01:33:29;10.40;99.90
67379;DHT22;54262;44.642;-0.974;2024-02-14T01:35:56;10.40;99.90
67379;DHT22;54262;44.642;-0.974;2024-02-14T01:38:23;10.40;99.90
67379;DHT22;54262;44.642;-0.974;2024-02-14T01:40:48;10.40;99.90
67379;DHT22;54262;44.642;-0.974;2024-02-14T01:43:14;10.50;99.90
67379;DHT22;54262;44.642;-0.974;2024-02-14T01:45:40;10.50;99.90
67379;DHT22;54262;44.642;-0.974;2024-02-14T01:48:06;10.50;99.90
67379;DHT22;54262;44.642;-0.974;2024-02-14T01:50:34;10.50;99.90
67379;DHT22;54262;44.642;-0.974;2024-02-14T01:53:00;10.40;99.90
67379;DHT22;54262;44.642;-0.974;2024-02-14T01:55:27;10.40;99.90
67379;DHT22;54262;44.642;-0.974;2024-02-14T01:57:54;10.40;99.90
67379;DHT22;54262;44.642;-0.974;2024-02-14T02:00:20;10.30;99.90
67379;DHT22;54262;44.642;-0.974;2024-02-14T02:02:49;10.40;99.90
67379;DHT22;54262;44.642;-0.974;2024-02-14T02:05:14;10.50;99.90
67379;DHT22;54262;44.642;-0.974;2024-02-14T02:07:41;10.50;99.90
67379;DHT22;54262;44.642;-0.974;2024-02-14T02:10:10;10.60;99.90
67379;DHT22;54262;44.642;-0.974;2024-02-14T02:12:38;10.50;99.90
67379;DHT22;54262;44.642;-0.974;2024-02-14T02:15:06;10.40;99.90
67379;DHT22;54262;44.642;-0.974;2024-02-14T02:17:32;10.50;99.90
67379;DHT22;54262;44.642;-0.974;2024-02-14T02:20:00;10.40;99.90
67379;DHT22;54262;44.642;-0.974;2024-02-14T02:22:26;10.50;99.90
67379;DHT22;54262;44.642;-0.974;2024-02-14T02:25:00;10.50;99.90
67379;DHT22;54262;44.642;-0.974;2024-02-14T02:27:27;10.50;99.90
67379;DHT22;54262;44.642;-0.974;2024-02-14T02:29:53;10.60;99.90
67379;DHT22;54262;44.642;-0.974;2024-02-14T02:32:19;10.60;99.90
67379;DHT22;54262;44.642;-0.974;2024-02-14T02:34:44;10.60;99.90
67379;DHT22;54262;44.642;-0.974;2024-02-14T02:37:13;10.60;99.90
67379;DHT22;54262;44.642;-0.974;2024-02-14T02:39:39;10.60;99.90
67379;DHT22;54262;44.642;-0.974;2024-02-14T02:42:05;10.60;99.90
67379;DHT22;54262;44.642;-0.974;2024-02-14T02:44:31;10.60;99.90
67379;DHT22;54262;44.642;-0.974;2024-02-14T02:46:57;10.50;99.90
67379;DHT22;54262;44.642;-0.974;2024-02-14T02:49:23;10.50;99.90
67379;DHT22;54262;44.642;-0.974;2024-02-14T02:51:48;10.60;99.90
67379;DHT22;54262;44.642;-0.974;2024-02-14T02:54:14;10.50;99.90
67379;DHT22;54262;44.642;-0.974;2024-02-14T02:56:40;10.50;99.90
67379;DHT22;54262;44.642;-0.974;2024-02-14T02:59:08;10.50;99.90
67379;DHT22;54262;44.642;-0.974;2024-02-14T03:01:37;10.50;99.90
67379;DHT22;54262;44.642;-0.974;2024-02-14T03:04:03;10.40;99.90
67379;DHT22;54262;44.642;-0.974;2024-02-14T03:06:28;10.30;99.90
67379;DHT22;54262;44.642;-0.974;2024-02-14T03:08:54;10.30;99.90
67379;DHT22;54262;44.642;-0.974;2024-02-14T03:11:22;10.30;99.90
67379;DHT22;54262;44.642;-0.974;2024-02-14T03:13:48;10.40;99.90
67379;DHT22;54262;44.642;-0.974;2024-02-14T03:16:17;10.40;99.90
67379;DHT22;54262;44.642;-0.974;2024-02-14T03:18:43;10.40;99.90
67379;DHT22;54262;44.642;-0.974;2024-02-14T03:21:09;10.40;99.90
67379;DHT22;54262;44.642;-0.974;2024-02-14T03:23:35;10.30;99.90
67379;DHT22;54262;44.642;-0.974;2024-02-14T03:26:03;10.20;99.90
67379;DHT22;54262;44.642;-0.974;2024-02-14T03:28:33;10.30;99.90
67379;DHT22;54262;44.642;-0.974;2024-02-14T03:30:58;10.30;99.90
67379;DHT22;54262;44.642;-0.974;2024-02-14T03:33:24;10.30;99.90
67379;DHT22;54262;44.642;-0.974;2024-02-14T03:35:50;10.30;99.90
67379;DHT22;54262;44.642;-0.974;2024-02-14T03:38:28;10.20;99.90
67379;DHT22;54262;44.642;-0.974;2024-02-14T03:40:54;10.10;99.90
67379;DHT22;54262;44.642;-0.974;2024-02-14T03:43:20;10.10;99.90
67379;DHT22;54262;44.642;-0.974;2024-02-14T03:45:49;10.20;99.90
67379;DHT22;54262;44.642;-0.974;2024-02-14T03:48:14;10.20;99.90
67379;DHT22;54262;44.642;-0.974;2024-02-14T03:50:40;10.30;99.90
67379;DHT22;54262;44.642;-0.974;2024-02-14T03:53:07;10.20;99.90
67379;DHT22;54262;44.642;-0.974;2024-02-14T03:55:33;10.20;99.90
67379;DHT22;54262;44.642;-0.974;2024-02-14T03:57:58;10.20;99.90
67379;DHT22;54262;44.642;-0.974;2024-02-14T04:00:24;10.20;99.90
67379;DHT22;54262;44.642;-0.974;2024-02-14T04:02:50;10.10;99.90
67379;DHT22;54262;44.642;-0.974;2024-02-14T04:05:19;10.10;99.90
67379;DHT22;54262;44.642;-0.974;2024-02-14T04:07:44;10.00;99.90
67379;DHT22;54262;44.642;-0.974;2024-02-14T04:10:14;10.00;99.90
67379;DHT22;54262;44.642;-0.974;2024-02-14T04:12:40;9.90;99.90
67379;DHT22;54262;44.642;-0.974;2024-02-14T04:15:06;9.90;99.90
67379;DHT22;54262;44.642;-0.974;2024-02-14T04:17:32;9.90;99.90
67379;DHT22;54262;44.642;-0.974;2024-02-14T04:19:57;10.00;99.90
67379;DHT22;54262;44.642;-0.974;2024-02-14T04:22:26;10.00;99.90
67379;DHT22;54262;44.642;-0.974;2024-02-14T04:24:52;10.00;99.90
67379;DHT22;54262;44.642;-0.974;2024-02-14T04:27:20;9.90;99.90
67379;DHT22;54262;44.642;-0.974;2024-02-14T04:29:48;10.00;99.90
67379;DHT22;54262;44.642;-0.974;2024-02-14T04:32:14;10.10;99.90
67379;DHT22;54262;44.642;-0.974;2024-02-14T04:34:42;10.10;99.90
67379;DHT22;54262;44.642;-0.974;2024-02-14T04:37:09;10.10;99.90
67379;DHT22;54262;44.642;-0.974;2024-02-14T04:39:39;10.00;99.90
67379;DHT22;54262;44.642;-0.974;2024-02-14T04:42:08;9.90;99.90
67379;DHT22;54262;44.642;-0.974;2024-02-14T04:44:34;9.90;99.90
67379;DHT22;54262;44.642;-0.974;2024-02-14T04:47:00;10.00;99.90
67379;DHT22;54262;44.642;-0.974;2024-02-14T04:49:26;9.90;99.90
67379;DHT22;54262;44.642;-0.974;2024-02-14T04:51:52;9.90;99.90
67379;DHT22;54262;44.642;-0.974;2024-02-14T04:54:18;10.00;99.90
67379;DHT22;54262;44.642;-0.974;2024-02-14T04:56:44;10.00;99.90
67379;DHT22;54262;44.642;-0.974;2024-02-14T04:59:11;10.00;99.90
67379;DHT22;54262;44.642;-0.974;2024-02-14T05:01:36;10.00;99.90
67379;DHT22;54262;44.642;-0.974;2024-02-14T05:04:02;10.00;99.90
67379;DHT22;54262;44.642;-0.974;2024-02-14T05:06:28;10.10;99.90
67379;DHT22;54262;44.642;-0.974;2024-02-14T05:08:54;10.10;99.90
67379;DHT22;54262;44.642;-0.974;2024-02-14T05:11:20;10.10;99.90
67379;DHT22;54262;44.642;-0.974;2024-02-14T05:13:45;9.90;99.90
67379;DHT22;54262;44.642;-0.974;2024-02-14T05:16:12;9.90;99.90
67379;DHT22;54262;44.642;-0.974;2024-02-14T05:18:38;9.90;99.90
67379;DHT22;54262;44.642;-0.974;2024-02-14T05:21:07;10.00;99.90
67379;DHT22;54262;44.642;-0.974;2024-02-14T05:23:34;10.00;99.90
67379;DHT22;54262;44.642;-0.974;2024-02-14T05:26:00;10.00;99.90
67379;DHT22;54262;44.642;-0.974;2024-02-14T05:28:30;10.00;99.90
67379;DHT22;54262;44.642;-0.974;2024-02-14T05:30:59;10.00;99.90
67379;DHT22;54262;44.642;-0.974;2024-02-14T05:33:25;10.00;99.90
67379;DHT22;54262;44.642;-0.974;2024-02-14T05:35:52;9.90;99.90
67379;DHT22;54262;44.642;-0.974;2024-02-14T05:38:18;9.80;99.90
67379;DHT22;54262;44.642;-0.974;2024-02-14T05:40:49;9.80;99.90
67379;DHT22;54262;44.642;-0.974;2024-02-14T05:43:16;9.80;99.90
67379;DHT22;54262;44.642;-0.974;2024-02-14T05:45:43;9.90;99.90
67379;DHT22;54262;44.642;-0.974;2024-02-14T05:48:09;9.90;99.90
67379;DHT22;54262;44.642;-0.974;2024-02-14T05:50:35;9.80;99.90
67379;DHT22;54262;44.642;-0.974;2024-02-14T05:53:00;9.80;99.90
67379;DHT22;54262;44.642;-0.974;2024-02-14T05:55:26;9.80;99.90
67379;DHT22;54262;44.642;-0.974;2024-02-14T05:57:52;9.80;99.90
67379;DHT22;54262;44.642;-0.974;2024-02-14T06:00:19;9.80;99.90
67379;DHT22;54262;44.642;-0.974;2024-02-14T06:02:49;9.90;99.90
67379;DHT22;54262;44.642;-0.974;2024-02-14T06:05:15;9.90;99.90
67379;DHT22;54262;44.642;-0.974;2024-02-14T06:07:41;9.90;99.90
67379;DHT22;54262;44.642;-0.974;2024-02-14T06:10:08;9.80;99.90
67379;DHT22;54262;44.642;-0.974;2024-02-14T06:12:34;9.80;99.90
67379;DHT22;54262;44.642;-0.974;2024-02-14T06:15:01;9.80;99.90
67379;DHT22;54262;44.642;-0.974;2024-02-14T06:17:27;9.80;99.90
67379;DHT22;54262;44.642;-0.974;2024-02-14T06:19:53;9.80;99.90
67379;DHT22;54262;44.642;-0.974;2024-02-14T06:22:19;9.70;99.90
67379;DHT22;54262;44.642;-0.974;2024-02-14T06:24:45;9.70;99.90
67379;DHT22;54262;44.642;-0.974;2024-02-14T06:27:14;9.80;99.90
67379;DHT22;54262;44.642;-0.974;2024-02-14T06:29:42;9.70;99.90
67379;DHT22;54262;44.642;-0.974;2024-02-14T06:32:13;9.70;99.90
67379;DHT22;54262;44.642;-0.974;2024-02-14T06:34:42;9.80;99.90
67379;DHT22;54262;44.642;-0.974;2024-02-14T06:37:07;9.80;99.90
67379;DHT22;54262;44.642;-0.974;2024-02-14T06:39:33;9.80;99.90
67379;DHT22;54262;44.642;-0.974;2024-02-14T06:41:59;9.70;99.90
67379;DHT22;54262;44.642;-0.974;2024-02-14T06:44:24;9.80;99.90
67379;DHT22;54262;44.642;-0.974;2024-02-14T06:46:50;9.80;99.90
67379;DHT22;54262;44.642;-0.974;2024-02-14T06:49:16;9.80;99.90
67379;DHT22;54262;44.642;-0.974;2024-02-14T06:51:42;9.70;99.90
67379;DHT22;54262;44.642;-0.974;2024-02-14T06:54:09;9.80;99.90
67379;DHT22;54262;44.642;-0.974;2024-02-14T06:56:35;9.80;99.90
67379;DHT22;54262;44.642;-0.974;2024-02-14T06:59:01;9.70;99.90
67379;DHT22;54262;44.642;-0.974;2024-02-14T07:01:28;9.80;99.90
67379;DHT22;54262;44.642;-0.974;2024-02-14T07:03:54;9.80;99.90
67379;DHT22;54262;44.642;-0.974;2024-02-14T07:06:20;9.80;99.90
67379;DHT22;54262;44.642;-0.974;2024-02-14T07:08:46;9.70;99.90
67379;DHT22;54262;44.642;-0.974;2024-02-14T07:11:13;9.70;99.90
67379;DHT22;54262;44.642;-0.974;2024-02-14T07:13:39;9.70;99.90
67379;DHT22;54262;44.642;-0.974;2024-02-14T07:16:05;9.80;99.90
67379;DHT22;54262;44.642;-0.974;2024-02-14T07:18:30;9.80;99.90
67379;DHT22;54262;44.642;-0.974;2024-02-14T07:20:56;9.90;99.90
67379;DHT22;54262;44.642;-0.974;2024-02-14T07:23:22;9.90;99.90
67379;DHT22;54262;44.642;-0.974;2024-02-14T07:25:47;9.90;99.90
67379;DHT22;54262;44.642;-0.974;2024-02-14T07:28:13;9.90;99.90
67379;DHT22;54262;44.642;-0.974;2024-02-14T07:30:41;9.80;99.90
67379;DHT22;54262;44.642;-0.974;2024-02-14T07:33:09;9.90;99.90
67379;DHT22;54262;44.642;-0.974;2024-02-14T07:35:36;10.00;99.90
67379;DHT22;54262;44.642;-0.974;2024-02-14T07:38:02;9.90;99.90
67379;DHT22;54262;44.642;-0.974;2024-02-14T07:40:27;9.90;99.90
67379;DHT22;54262;44.642;-0.974;2024-02-14T07:42:56;9.90;99.90
67379;DHT22;54262;44.642;-0.974;2024-02-14T07:45:22;10.00;99.90
67379;DHT22;54262;44.642;-0.974;2024-02-14T07:47:49;10.00;99.90
67379;DHT22;54262;44.642;-0.974;2024-02-14T07:50:15;9.90;99.90
67379;DHT22;54262;44.642;-0.974;2024-02-14T07:52:44;10.00;99.90
67379;DHT22;54262;44.642;-0.974;2024-02-14T07:55:11;10.00;99.90
67379;DHT22;54262;44.642;-0.974;2024-02-14T07:57:42;10.10;99.90
67379;DHT22;54262;44.642;-0.974;2024-02-14T08:00:09;10.10;99.90
67379;DHT22;54262;44.642;-0.974;2024-02-14T08:02:36;10.20;99.90
67379;DHT22;54262;44.642;-0.974;2024-02-14T08:05:02;10.30;99.90
67379;DHT22;54262;44.642;-0.974;2024-02-14T08:07:33;10.30;99.90
67379;DHT22;54262;44.642;-0.974;2024-02-14T08:09:58;10.40;99.90
67379;DHT22;54262;44.642;-0.974;2024-02-14T08:12:24;10.50;99.90
67379;DHT22;54262;44.642;-0.974;2024-02-14T08:14:51;10.60;99.90
67379;DHT22;54262;44.642;-0.974;2024-02-14T08:17:17;10.70;99.90
67379;DHT22;54262;44.642;-0.974;2024-02-14T08:19:43;10.80;99.90
67379;DHT22;54262;44.642;-0.974;2024-02-14T08:22:09;10.90;99.90
67379;DHT22;54262;44.642;-0.974;2024-02-14T08:24:34;11.00;99.90
67379;DHT22;54262;44.642;-0.974;2024-02-14T08:27:00;11.00;99.90
67379;DHT22;54262;44.642;-0.974;2024-02-14T08:29:25;11.00;99.90
67379;DHT22;54262;44.642;-0.974;2024-02-14T08:31:54;11.00;99.90
67379;DHT22;54262;44.642;-0.974;2024-02-14T08:34:21;11.10;99.90
67379;DHT22;54262;44.642;-0.974;2024-02-14T08:36:47;11.10;99.90
67379;DHT22;54262;44.642;-0.974;2024-02-14T08:39:13;11.20;99.90
67379;DHT22;54262;44.642;-0.974;2024-02-14T08:41:39;11.20;99.90
67379;DHT22;54262;44.642;-0.974;2024-02-14T08:44:07;11.40;99.90
67379;DHT22;54262;44.642;-0.974;2024-02-14T08:46:33;11.40;99.90
67379;DHT22;54262;44.642;-0.974;2024-02-14T08:49:00;11.50;99.90
67379;DHT22;54262;44.642;-0.974;2024-02-14T08:51:28;11.60;99.90
67379;DHT22;54262;44.642;-0.974;2024-02-14T08:53:54;11.90;99.90
67379;DHT22;54262;44.642;-0.974;2024-02-14T08:56:22;12.00;99.90
67379;DHT22;54262;44.642;-0.974;2024-02-14T08:58:48;11.90;99.90
67379;DHT22;54262;44.642;-0.974;2024-02-14T09:01:14;11.90;99.90
67379;DHT22;54262;44.642;-0.974;2024-02-14T09:03:44;12.00;99.90
67379;DHT22;54262;44.642;-0.974;2024-02-14T09:06:13;11.90;99.90
67379;DHT22;54262;44.642;-0.974;2024-02-14T09:08:40;12.10;99.90
67379;DHT22;54262;44.642;-0.974;2024-02-14T09:11:06;12.20;99.90
67379;DHT22;54262;44.642;-0.974;2024-02-14T09:13:31;12.30;99.90
67379;DHT22;54262;44.642;-0.974;2024-02-14T09:15:57;12.40;99.90
67379;DHT22;54262;44.642;-0.974;2024-02-14T09:18:23;12.50;99.90
67379;DHT22;54262;44.642;-0.974;2024-02-14T09:20:50;12.50;99.90
67379;DHT22;54262;44.642;-0.974;2024-02-14T09:23:16;12.40;99.90
67379;DHT22;54262;44.642;-0.974;2024-02-14T09:25:46;12.50;99.90
67379;DHT22;54262;44.642;-0.974;2024-02-14T09:28:12;12.70;99.90
67379;DHT22;54262;44.642;-0.974;2024-02-14T09:30:39;12.80;99.90
67379;DHT22;54262;44.642;-0.974;2024-02-14T09:33:07;13.00;99.90
67379;DHT22;54262;44.642;-0.974;2024-02-14T09:35:35;13.10;99.90
67379;DHT22;54262;44.642;-0.974;2024-02-14T09:38:03;13.20;99.90
67379;DHT22;54262;44.642;-0.974;2024-02-14T09:40:29;13.30;99.90
67379;DHT22;54262;44.642;-0.974;2024-02-14T09:42:55;13.20;99.90
67379;DHT22;54262;44.642;-0.974;2024-02-14T09:45:26;13.20;99.90
67379;DHT22;54262;44.642;-0.974;2024-02-14T09:47:53;13.20;99.90
67379;DHT22;54262;44.642;-0.974;2024-02-14T09:50:20;13.50;99.90
67379;DHT22;54262;44.642;-0.974;2024-02-14T09:52:49;13.40;99.90
67379;DHT22;54262;44.642;-0.974;2024-02-14T09:55:16;13.40;99.90
67379;DHT22;54262;44.642;-0.974;2024-02-14T09:57:43;13.40;99.90
67379;DHT22;54262;44.642;-0.974;2024-02-14T10:00:12;13.50;99.90
67379;DHT22;54262;44.642;-0.974;2024-02-14T10:02:40;13.60;99.90
67379;DHT22;54262;44.642;-0.974;2024-02-14T10:05:07;13.80;99.90
67379;DHT22;54262;44.642;-0.974;2024-02-14T10:07:43;13.90;99.90
67379;DHT22;54262;44.642;-0.974;2024-02-14T10:10:09;13.90;99.90
67379;DHT22;54262;44.642;-0.974;2024-02-14T10:12:35;14.00;99.90
67379;DHT22;54262;44.642;-0.974;2024-02-14T10:15:01;14.10;99.90
67379;DHT22;54262;44.642;-0.974;2024-02-14T10:17:32;14.10;99.90
67379;DHT22;54262;44.642;-0.974;2024-02-14T10:19:58;14.30;99.90
67379;DHT22;54262;44.642;-0.974;2024-02-14T10:22:32;14.30;99.90
67379;DHT22;54262;44.642;-0.974;2024-02-14T10:24:58;14.40;99.90
67379;DHT22;54262;44.642;-0.974;2024-02-14T10:27:23;14.50;99.90
67379;DHT22;54262;44.642;-0.974;2024-02-14T10:29:50;14.60;99.90
67379;DHT22;54262;44.642;-0.974;2024-02-14T10:32:16;14.80;99.90
67379;DHT22;54262;44.642;-0.974;2024-02-14T10:34:44;14.90;99.90
67379;DHT22;54262;44.642;-0.974;2024-02-14T10:37:17;14.90;99.90
67379;DHT22;54262;44.642;-0.974;2024-02-14T10:39:46;15.10;99.90
67379;DHT22;54262;44.642;-0.974;2024-02-14T10:42:13;15.10;99.90
67379;DHT22;54262;44.642;-0.974;2024-02-14T10:44:39;15.10;99.90
67379;DHT22;54262;44.642;-0.974;2024-02-14T10:47:08;15.20;99.90
67379;DHT22;54262;44.642;-0.974;2024-02-14T10:49:37;15.20;99.90
67379;DHT22;54262;44.642;-0.974;2024-02-14T10:52:06;15.30;99.90
67379;DHT22;54262;44.642;-0.974;2024-02-14T10:54:35;15.40;99.90
67379;DHT22;54262;44.642;-0.974;2024-02-14T10:57:05;15.60;99.90
67379;DHT22;54262;44.642;-0.974;2024-02-14T10:59:40;15.80;99.90
67379;DHT22;54262;44.642;-0.974;2024-02-14T11:02:07;15.70;99.90
67379;DHT22;54262;44.642;-0.974;2024-02-14T11:04:33;15.80;99.90
67379;DHT22;54262;44.642;-0.974;2024-02-14T11:06:59;15.90;99.90
67379;DHT22;54262;44.642;-0.974;2024-02-14T11:09:36;15.90;99.90
67379;DHT22;54262;44.642;-0.974;2024-02-14T11:12:03;16.00;99.90
67379;DHT22;54262;44.642;-0.974;2024-02-14T11:14:33;16.00;99.90
67379;DHT22;54262;44.642;-0.974;2024-02-14T11:17:01;16.10;99.90
67379;DHT22;54262;44.642;-0.974;2024-02-14T11:19:34;16.10;99.90
67379;DHT22;54262;44.642;-0.974;2024-02-14T11:22:17;16.20;99.90
67379;DHT22;54262;44.642;-0.974;2024-02-14T11:24:46;16.50;99.90
67379;DHT22;54262;44.642;-0.974;2024-02-14T11:27:11;16.50;99.90
67379;DHT22;54262;44.642;-0.974;2024-02-14T11:29:50;16.70;99.90
67379;DHT22;54262;44.642;-0.974;2024-02-14T11:32:17;16.70;99.90
67379;DHT22;54262;44.642;-0.974;2024-02-14T11:34:53;16.80;99.90
67379;DHT22;54262;44.642;-0.974;2024-02-14T11:37:27;16.90;99.90
67379;DHT22;54262;44.642;-0.974;2024-02-14T11:39:53;16.90;99.90
67379;DHT22;54262;44.642;-0.974;2024-02-14T11:42:21;17.00;99.90
67379;DHT22;54262;44.642;-0.974;2024-02-14T11:44:47;17.10;99.90
67379;DHT22;54262;44.642;-0.974;2024-02-14T11:47:13;17.20;99.90
67379;DHT22;54262;44.642;-0.974;2024-02-14T11:49:39;17.10;99.90
67379;DHT22;54262;44.642;-0.974;2024-02-14T11:52:09;17.20;99.90
67379;DHT22;54262;44.642;-0.974;2024-02-14T11:54:35;17.20;99.90
67379;DHT22;54262;44.642;-0.974;2024-02-14T11:57:00;17.30;99.90
67379;DHT22;54262;44.642;-0.974;2024-02-14T11:59:26;17.40;99.90
67379;DHT22;54262;44.642;-0.974;2024-02-14T12:01:52;17.50;99.90
67379;DHT22;54262;44.642;-0.974;2024-02-14T12:04:19;17.60;99.90
67379;DHT22;54262;44.642;-0.974;2024-02-14T12:06:45;17.60;99.90
67379;DHT22;54262;44.642;-0.974;2024-02-14T12:09:11;17.60;99.90
67379;DHT22;54262;44.642;-0.974;2024-02-14T12:11:39;17.70;99.90
67379;DHT22;54262;44.642;-0.974;2024-02-14T12:14:06;17.70;99.90
67379;DHT22;54262;44.642;-0.974;2024-02-14T12:16:37;17.70;99.90
67379;DHT22;54262;44.642;-0.974;2024-02-14T12:21:38;17.80;99.90
67379;DHT22;54262;44.642;-0.974;2024-02-14T12:24:08;17.80;99.90
67379;DHT22;54262;44.642;-0.974;2024-02-14T12:26:35;17.90;99.90
67379;DHT22;54262;44.642;-0.974;2024-02-14T12:29:05;18.10;99.90
67379;DHT22;54262;44.642;-0.974;2024-02-14T12:31:32;18.10;99.90
67379;DHT22;54262;44.642;-0.974;2024-02-14T12:33:58;18.10;99.90
67379;DHT22;54262;44.642;-0.974;2024-02-14T12:36:30;18.30;99.90
67379;DHT22;54262;44.642;-0.974;2024-02-14T12:38:59;18.40;99.90
67379;DHT22;54262;44.642;-0.974;2024-02-14T12:41:28;18.40;99.90
67379;DHT22;54262;44.642;-0.974;2024-02-14T12:43:55;18.40;99.90
67379;DHT22;54262;44.642;-0.974;2024-02-14T12:46:21;18.50;99.90
67379;DHT22;54262;44.642;-0.974;2024-02-14T12:48:47;18.70;99.90
67379;DHT22;54262;44.642;-0.974;2024-02-14T12:51:14;18.80;99.90
67379;DHT22;54262;44.642;-0.974;2024-02-14T12:53:40;19.00;99.90
67379;DHT22;54262;44.642;-0.974;2024-02-14T12:56:06;19.00;99.90
67379;DHT22;54262;44.642;-0.974;2024-02-14T12:58:32;19.00;99.90
67379;DHT22;54262;44.642;-0.974;2024-02-14T13:00:58;19.10;99.90
67379;DHT22;54262;44.642;-0.974;2024-02-14T13:03:24;19.20;99.90
67379;DHT22;54262;44.642;-0.974;2024-02-14T13:05:50;19.20;99.90
67379;DHT22;54262;44.642;-0.974;2024-02-14T13:08:19;19.30;99.90
67379;DHT22;54262;44.642;-0.974;2024-02-14T13:10:46;19.50;99.90
67379;DHT22;54262;44.642;-0.974;2024-02-14T13:13:12;19.60;99.90
67379;DHT22;54262;44.642;-0.974;2024-02-14T13:15:37;19.60;99.90
67379;DHT22;54262;44.642;-0.974;2024-02-14T13:18:03;19.70;99.90
67379;DHT22;54262;44.642;-0.974;2024-02-14T13:20:29;19.70;99.90
67379;DHT22;54262;44.642;-0.974;2024-02-14T13:22:55;19.70;99.90
67379;DHT22;54262;44.642;-0.974;2024-02-14T13:25:24;19.70;99.90
67379;DHT22;54262;44.642;-0.974;2024-02-14T13:27:49;19.80;99.90
67379;DHT22;54262;44.642;-0.974;2024-02-14T13:30:15;19.80;99.90
67379;DHT22;54262;44.642;-0.974;2024-02-14T13:32:41;19.90;99.90
67379;DHT22;54262;44.642;-0.974;2024-02-14T13:35:07;19.80;99.90
67379;DHT22;54262;44.642;-0.974;2024-02-14T13:37:36;19.80;99.90
67379;DHT22;54262;44.642;-0.974;2024-02-14T13:40:04;19.80;99.90
67379;DHT22;54262;44.642;-0.974;2024-02-14T13:42:34;19.80;99.90
67379;DHT22;54262;44.642;-0.974;2024-02-14T13:45:04;19.90;99.90
67379;DHT22;54262;44.642;-0.974;2024-02-14T13:47:30;19.90;99.90
67379;DHT22;54262;44.642;-0.974;2024-02-14T13:49:56;19.90;99.90
67379;DHT22;54262;44.642;-0.974;2024-02-14T13:52:22;20.00;99.90
67379;DHT22;54262;44.642;-0.974;2024-02-14T13:54:48;20.10;99.90
67379;DHT22;54262;44.642;-0.974;2024-02-14T13:57:13;20.20;99.90
67379;DHT22;54262;44.642;-0.974;2024-02-14T13:59:39;20.10;99.90
67379;DHT22;54262;44.642;-0.974;2024-02-14T14:02:05;20.20;99.90
67379;DHT22;54262;44.642;-0.974;2024-02-14T14:04:30;20.20;99.90
67379;DHT22;54262;44.642;-0.974;2024-02-14T14:06:56;20.20;99.90
67379;DHT22;54262;44.642;-0.974;2024-02-14T14:09:22;20.20;99.90
67379;DHT22;54262;44.642;-0.974;2024-02-14T14:11:48;20.20;99.90
67379;DHT22;54262;44.642;-0.974;2024-02-14T14:14:16;20.30;99.90
67379;DHT22;54262;44.642;-0.974;2024-02-14T14:16:44;20.30;99.90
67379;DHT22;54262;44.642;-0.974;2024-02-14T14:19:10;20.50;99.90
67379;DHT22;54262;44.642;-0.974;2024-02-14T14:21:36;20.50;99.90
67379;DHT22;54262;44.642;-0.974;2024-02-14T14:24:04;20.40;99.90
67379;DHT22;54262;44.642;-0.974;2024-02-14T14:26:29;20.40;99.90
67379;DHT22;54262;44.642;-0.974;2024-02-14T14:28:55;20.40;99.90
67379;DHT22;54262;44.642;-0.974;2024-02-14T14:31:20;20.50;99.90
67379;DHT22;54262;44.642;-0.974;2024-02-14T14:33:46;20.40;99.90
67379;DHT22;54262;44.642;-0.974;2024-02-14T14:36:12;20.30;99.90
67379;DHT22;54262;44.642;-0.974;2024-02-14T14:38:40;20.20;99.90
67379;DHT22;54262;44.642;-0.974;2024-02-14T14:41:08;20.10;99.90
67379;DHT22;54262;44.642;-0.974;2024-02-14T14:43:33;20.10;99.90
67379;DHT22;54262;44.642;-0.974;2024-02-14T14:45:59;20.00;99.90
67379;DHT22;54262;44.642;-0.974;2024-02-14T14:48:25;20.00;99.90
67379;DHT22;54262;44.642;-0.974;2024-02-14T14:50:51;20.00;99.90
67379;DHT22;54262;44.642;-0.974;2024-02-14T14:53:18;20.00;99.90
67379;DHT22;54262;44.642;-0.974;2024-02-14T14:58:16;20.10;99.90
67379;DHT22;54262;44.642;-0.974;2024-02-14T15:00:43;20.10;99.90
67379;DHT22;54262;44.642;-0.974;2024-02-14T15:03:09;20.20;99.90
67379;DHT22;54262;44.642;-0.974;2024-02-14T15:05:36;20.40;99.90
67379;DHT22;54262;44.642;-0.974;2024-02-14T15:08:04;20.60;99.90
67379;DHT22;54262;44.642;-0.974;2024-02-14T15:10:30;20.70;99.90
67379;DHT22;54262;44.642;-0.974;2024-02-14T15:12:55;20.80;99.90
67379;DHT22;54262;44.642;-0.974;2024-02-14T15:15:21;20.90;99.90
67379;DHT22;54262;44.642;-0.974;2024-02-14T15:17:47;21.00;99.90
67379;DHT22;54262;44.642;-0.974;2024-02-14T15:20:12;21.00;99.90